createdAt,value
2022-11-30T00:03:01.664Z,24.38
2022-11-30T00:06:43.471Z,23.23
2022-11-30T00:10:25.235Z,23.95
2022-11-30T00:14:07.078Z,22.15
2022-11-30T00:17:48.953Z,24.17
2022-11-30T00:21:30.859Z,23.85
2022-11-30T00:25:12.683Z,24.73
2022-11-30T00:28:54.470Z,26.30
2022-11-30T00:32:36.195Z,27.13
2022-11-30T00:36:20.701Z,24.55
2022-11-30T00:40:02.442Z,25.35
2022-11-30T00:43:44.931Z,24.27
2022-11-30T00:47:26.682Z,25.48
2022-11-30T00:51:10.168Z,24.67
2022-11-30T00:54:51.930Z,26.48
2022-11-30T00:58:33.753Z,25.95
2022-11-30T01:02:15.607Z,23.83
2022-11-30T01:06:02.771Z,26.52
2022-11-30T01:09:44.533Z,25.55
2022-11-30T01:13:26.290Z,24.77
2022-11-30T01:17:08.117Z,24.45
2022-11-30T01:20:49.962Z,24.15
2022-11-30T01:24:31.690Z,24.30
2022-11-30T01:28:13.474Z,24.05
2022-11-30T01:31:55.212Z,24.52
2022-11-30T01:35:37.011Z,22.60
2022-11-30T01:39:18.759Z,21.55
2022-11-30T01:43:00.522Z,21.80
2022-11-30T01:46:54.141Z,20.33
2022-11-30T01:50:37.126Z,23.05
2022-11-30T01:54:24.958Z,20.98
2022-11-30T01:58:18.082Z,20.67
2022-11-30T02:01:59.898Z,20.92
2022-11-30T02:05:42.344Z,20.17
2022-11-30T02:09:24.777Z,22.65
2022-11-30T02:13:12.135Z,19.92
2022-11-30T02:21:01.052Z,20.17
2022-11-30T02:25:01.090Z,21.02
2022-11-30T02:29:10.246Z,22.75
2022-11-30T02:33:03.570Z,21.08
2022-11-30T02:36:47.453Z,20.70
2022-11-30T02:40:29.319Z,17.67
2022-11-30T02:44:12.563Z,20.80
2022-11-30T02:48:09.093Z,17.98
2022-11-30T02:51:52.434Z,20.48
2022-11-30T02:55:34.279Z,18.48
2022-11-30T02:59:16.126Z,18.20
2022-11-30T03:02:58.047Z,17.08
2022-11-30T03:06:39.851Z,17.13
2022-11-30T03:10:21.656Z,18.45
2022-11-30T03:14:04.265Z,16.75
2022-11-30T03:17:45.969Z,16.80
2022-11-30T03:21:28.650Z,16.88
2022-11-30T03:25:10.383Z,18.27
2022-11-30T03:28:52.158Z,16.02
2022-11-30T03:32:34.333Z,17.85
2022-11-30T03:36:16.086Z,16.58
2022-11-30T03:39:58.520Z,16.55
2022-11-30T03:43:41.130Z,16.63
2022-11-30T03:47:22.881Z,16.77
2022-11-30T03:51:05.366Z,17.48
2022-11-30T03:54:47.353Z,18.10
2022-11-30T03:58:29.871Z,17.20
2022-11-30T04:02:11.725Z,16.63
2022-11-30T04:05:53.798Z,16.67
2022-11-30T04:09:35.538Z,16.13
2022-11-30T04:13:17.438Z,14.98
2022-11-30T04:16:59.218Z,16.17
2022-11-30T04:20:41.698Z,17.33
2022-11-30T04:24:23.444Z,16.58
2022-11-30T04:28:05.187Z,19.58
2022-11-30T04:31:47.014Z,20.50
2022-11-30T04:35:28.972Z,19.13
2022-11-30T04:39:10.786Z,18.88
2022-11-30T04:42:52.522Z,19.55
2022-11-30T04:46:34.278Z,19.13
2022-11-30T04:50:16.025Z,20.23
2022-11-30T04:53:57.743Z,19.83
2022-11-30T04:57:39.677Z,19.85
2022-11-30T05:01:21.465Z,19.25
2022-11-30T05:05:03.294Z,20.05
2022-11-30T05:08:45.092Z,20.33
2022-11-30T05:12:26.824Z,19.23
2022-11-30T05:16:10.680Z,18.58
2022-11-30T05:19:52.566Z,18.80
2022-11-30T05:23:34.309Z,19.45
2022-11-30T05:27:22.160Z,19.00
2022-11-30T05:31:05.270Z,19.23
2022-11-30T05:34:51.176Z,19.42
2022-11-30T05:38:33.666Z,20.37
2022-11-30T05:42:15.507Z,18.55
2022-11-30T05:46:05.266Z,18.05
2022-11-30T05:49:47.252Z,18.38
2022-11-30T05:53:28.998Z,18.40
2022-11-30T05:57:10.850Z,19.50
2022-11-30T06:00:52.583Z,19.45
2022-11-30T06:04:34.735Z,20.80
2022-11-30T06:08:16.448Z,19.08
2022-11-30T06:11:58.239Z,16.98
2022-11-30T06:15:41.130Z,17.80
2022-11-30T06:19:22.871Z,18.30
2022-11-30T06:23:04.626Z,19.55
2022-11-30T06:26:46.352Z,17.75
2022-11-30T06:30:28.209Z,17.15
2022-11-30T06:34:09.946Z,18.83
2022-11-30T06:37:51.704Z,18.23
2022-11-30T06:41:33.458Z,17.27
2022-11-30T06:45:15.329Z,17.48
2022-11-30T06:48:57.066Z,19.40
2022-11-30T06:52:38.818Z,17.63
2022-11-30T06:56:21.065Z,17.30
2022-11-30T07:00:03.889Z,18.08
2022-11-30T07:03:45.859Z,18.52
2022-11-30T07:07:30.455Z,17.48
2022-11-30T07:11:13.032Z,17.00
2022-11-30T07:14:57.833Z,14.48
2022-11-30T07:18:39.610Z,14.35
2022-11-30T07:22:21.381Z,12.88
2022-11-30T07:26:06.366Z,10.95
2022-11-30T07:29:48.977Z,11.40
2022-11-30T07:33:31.521Z,12.82
2022-11-30T07:37:13.270Z,10.77
2022-11-30T07:40:55.046Z,11.68
2022-11-30T07:44:36.818Z,11.45
2022-11-30T07:48:18.810Z,11.05
2022-11-30T07:52:00.585Z,11.10
2022-11-30T07:55:42.889Z,10.10
2022-11-30T07:59:24.621Z,8.95
2022-11-30T08:03:06.472Z,10.43
2022-11-30T08:06:48.208Z,10.35
2022-11-30T08:10:29.908Z,9.07
2022-11-30T08:14:13.632Z,7.82
2022-11-30T08:17:55.449Z,8.65
2022-11-30T08:21:38.111Z,9.35
2022-11-30T08:25:19.966Z,9.68
2022-11-30T08:29:02.009Z,8.98
2022-11-30T08:32:43.706Z,11.07
2022-11-30T08:36:26.653Z,9.50
2022-11-30T08:40:08.933Z,10.60
2022-11-30T08:43:51.281Z,9.43
2022-11-30T08:47:33.072Z,9.35
2022-11-30T08:51:17.427Z,9.45
2022-11-30T08:54:59.129Z,9.75
2022-11-30T08:58:41.346Z,9.98
2022-11-30T09:02:23.126Z,9.68
2022-11-30T09:06:10.968Z,10.65
2022-11-30T09:09:52.682Z,8.65
2022-11-30T09:13:35.661Z,10.15
2022-11-30T09:17:17.476Z,11.52
2022-11-30T09:21:11.216Z,11.95
2022-11-30T09:24:53.016Z,10.45
2022-11-30T09:28:35.962Z,12.70
2022-11-30T09:32:17.711Z,12.73
2022-11-30T09:36:04.203Z,13.98
2022-11-30T09:39:45.920Z,14.67
2022-11-30T09:43:45.954Z,15.48
2022-11-30T09:47:46.497Z,16.33
2022-11-30T09:51:42.525Z,18.55
2022-11-30T09:55:42.668Z,17.00
2022-11-30T09:59:29.785Z,17.05
2022-11-30T10:03:13.217Z,16.40
2022-11-30T10:07:38.401Z,14.70
2022-11-30T10:11:38.522Z,15.45
2022-11-30T10:15:57.903Z,15.15
2022-11-30T10:19:59.595Z,16.38
2022-11-30T10:24:04.454Z,16.80
2022-11-30T10:28:12.736Z,14.13
2022-11-30T10:36:03.209Z,17.00
2022-11-30T10:39:47.655Z,15.85
2022-11-30T10:43:51.477Z,15.55
2022-11-30T10:47:37.224Z,16.95
2022-11-30T10:51:19.374Z,16.17
2022-11-30T10:55:04.883Z,15.60
2022-11-30T10:59:00.931Z,17.00
2022-11-30T11:02:45.956Z,17.42
2022-11-30T11:06:27.774Z,19.25
2022-11-30T11:10:16.470Z,18.45
2022-11-30T11:14:16.117Z,18.05
2022-11-30T11:18:16.115Z,17.90
2022-11-30T11:21:57.929Z,17.10
2022-11-30T11:25:43.242Z,17.00
2022-11-30T11:29:31.484Z,17.63
2022-11-30T11:33:13.218Z,18.70
2022-11-30T11:37:18.596Z,20.00
2022-11-30T11:41:07.140Z,19.95
2022-11-30T11:44:54.735Z,22.13
2022-11-30T11:48:40.474Z,21.48
2022-11-30T11:52:22.717Z,19.90
2022-11-30T11:56:23.265Z,20.05
2022-11-30T12:00:17.044Z,19.23
2022-11-30T12:04:27.164Z,20.67
2022-11-30T12:08:38.695Z,17.52
2022-11-30T12:12:20.446Z,19.60
2022-11-30T12:16:30.491Z,19.00
2022-11-30T12:20:14.935Z,19.42
2022-11-30T12:24:10.405Z,18.80
2022-11-30T12:28:26.211Z,20.30
2022-11-30T12:32:30.965Z,19.08
2022-11-30T12:36:38.827Z,18.95
2022-11-30T12:40:30.104Z,17.55
2022-11-30T12:44:30.126Z,18.75
2022-11-30T12:48:23.990Z,18.40
2022-11-30T12:52:30.632Z,16.73
2022-11-30T12:56:18.510Z,17.88
2022-11-30T13:00:17.180Z,17.67
2022-11-30T13:04:08.916Z,16.15
2022-11-30T13:08:13.508Z,17.55
2022-11-30T13:12:05.816Z,20.02
2022-11-30T13:15:49.789Z,17.48
2022-11-30T13:19:49.471Z,18.10
2022-11-30T13:23:44.617Z,15.23
2022-11-30T13:27:38.333Z,16.70
2022-11-30T13:31:25.809Z,15.25
2022-11-30T13:35:29.646Z,16.25
2022-11-30T13:39:19.789Z,15.45
2022-11-30T13:43:01.565Z,14.68
2022-11-30T13:46:53.383Z,15.40
2022-11-30T13:50:38.672Z,16.23
2022-11-30T13:54:39.334Z,14.23
2022-11-30T13:58:21.282Z,16.52
2022-11-30T14:02:31.278Z,15.55
2022-11-30T14:06:46.065Z,15.00
2022-11-30T14:10:39.260Z,15.55
2022-11-30T14:14:45.780Z,15.07
2022-11-30T14:22:24.998Z,16.17
2022-11-30T14:26:13.438Z,16.38
2022-11-30T14:30:01.044Z,17.40
2022-11-30T14:33:54.624Z,17.15
2022-11-30T14:37:54.688Z,16.70
2022-11-30T14:41:41.058Z,15.57
2022-11-30T14:45:28.442Z,15.27
2022-11-30T14:49:20.502Z,13.70
2022-11-30T14:53:03.877Z,15.02
2022-11-30T14:56:50.303Z,15.23
2022-11-30T15:00:38.765Z,14.83
2022-11-30T15:04:20.735Z,15.18
2022-11-30T15:08:02.767Z,16.55
2022-11-30T15:11:47.313Z,16.85
2022-11-30T15:15:31.222Z,16.38
2022-11-30T15:19:21.432Z,16.90
2022-11-30T15:23:03.458Z,16.92
2022-11-30T15:26:50.398Z,16.67
2022-11-30T15:30:35.006Z,17.15
2022-11-30T15:34:25.973Z,16.73
2022-11-30T15:38:10.876Z,15.90
2022-11-30T15:41:58.712Z,16.02
2022-11-30T15:45:52.959Z,14.68
2022-11-30T15:49:36.340Z,14.63
2022-11-30T15:53:47.232Z,15.60
2022-11-30T15:57:59.384Z,14.27
2022-11-30T16:02:04.852Z,15.63
2022-11-30T16:05:57.086Z,13.75
2022-11-30T16:09:38.888Z,13.45
2022-11-30T16:13:22.571Z,14.07
2022-11-30T16:17:08.970Z,12.82
2022-11-30T16:20:54.511Z,14.23
2022-11-30T16:24:37.146Z,15.60
2022-11-30T16:28:19.755Z,16.40
2022-11-30T16:32:01.547Z,16.45
2022-11-30T16:35:56.545Z,16.23
2022-11-30T16:39:38.251Z,15.65
2022-11-30T16:43:20.310Z,15.07
2022-11-30T16:47:02.030Z,15.50
2022-11-30T16:50:44.635Z,16.33
2022-11-30T16:54:26.327Z,18.10
2022-11-30T16:58:08.160Z,17.38
2022-11-30T17:01:53.321Z,17.58
2022-11-30T17:05:36.238Z,16.85
2022-11-30T17:09:19.622Z,18.67
2022-11-30T17:13:01.301Z,17.67
2022-11-30T17:16:43.057Z,19.92
2022-11-30T17:20:25.920Z,20.58
2022-11-30T17:24:07.755Z,19.70
2022-11-30T17:27:50.449Z,23.67
2022-11-30T17:31:32.990Z,23.33
2022-11-30T17:35:16.138Z,21.20
2022-11-30T17:38:57.833Z,19.80
2022-11-30T17:42:39.889Z,19.95
2022-11-30T17:46:22.588Z,18.48
2022-11-30T17:50:06.758Z,16.88
2022-11-30T17:53:49.474Z,21.10
2022-11-30T17:57:31.249Z,20.25
2022-11-30T18:01:17.540Z,22.05
2022-11-30T18:04:59.542Z,21.20
2022-11-30T18:08:41.973Z,21.90
2022-11-30T18:12:23.820Z,21.60
2022-11-30T18:16:13.306Z,20.15
2022-11-30T18:19:55.253Z,19.42
2022-11-30T18:23:37.484Z,18.40
2022-11-30T18:27:19.298Z,17.33
2022-11-30T18:31:01.250Z,17.70
2022-11-30T18:34:49.186Z,17.02
2022-11-30T18:38:37.067Z,18.48
2022-11-30T18:42:20.694Z,18.42
2022-11-30T18:46:04.021Z,19.17
2022-11-30T18:49:45.846Z,19.67
2022-11-30T18:53:27.612Z,20.75
2022-11-30T18:57:09.400Z,22.63
2022-11-30T19:00:51.157Z,20.67
2022-11-30T19:04:32.908Z,23.10
2022-11-30T19:08:14.786Z,23.13
2022-11-30T19:11:58.044Z,23.40
2022-11-30T19:15:41.144Z,22.98
2022-11-30T19:19:23.023Z,24.50
2022-11-30T19:23:04.782Z,24.45
2022-11-30T19:26:46.684Z,23.10
2022-11-30T19:30:28.425Z,23.10
2022-11-30T19:34:12.899Z,26.02
2022-11-30T19:37:55.150Z,24.50
2022-11-30T19:41:36.877Z,23.92
2022-11-30T19:45:18.734Z,24.08
2022-11-30T19:49:02.323Z,22.05
2022-11-30T19:52:44.191Z,23.40
2022-11-30T19:56:27.612Z,20.48
2022-11-30T20:00:09.990Z,22.30
2022-11-30T20:03:53.572Z,20.75
2022-11-30T20:07:36.298Z,21.23
2022-11-30T20:11:18.147Z,18.48
2022-11-30T20:14:59.976Z,19.45
2022-11-30T20:18:45.989Z,19.27
2022-11-30T20:22:28.506Z,17.53
2022-11-30T20:26:29.963Z,15.77
2022-11-30T20:30:12.222Z,14.68
2022-11-30T20:33:53.975Z,14.77
2022-11-30T20:37:38.582Z,12.80
2022-11-30T20:41:25.872Z,16.02
2022-11-30T20:45:07.906Z,18.15
2022-11-30T20:48:50.690Z,18.40
2022-11-30T20:52:32.566Z,17.80
2022-11-30T20:56:15.272Z,16.95
2022-11-30T20:59:57.088Z,16.45
2022-11-30T21:03:39.710Z,16.63
2022-11-30T21:07:21.494Z,14.30
2022-11-30T21:11:14.909Z,14.70
2022-11-30T21:14:56.653Z,16.33
2022-11-30T21:18:40.803Z,15.13
2022-11-30T21:22:22.533Z,14.18
2022-11-30T21:26:06.159Z,14.93
2022-11-30T21:29:47.973Z,12.85
2022-11-30T21:33:29.738Z,11.82
2022-11-30T21:37:11.638Z,15.18
2022-11-30T21:40:55.406Z,14.75
2022-11-30T21:44:37.147Z,13.93
2022-11-30T21:48:20.362Z,13.98
2022-11-30T21:52:02.082Z,14.98
2022-11-30T21:55:43.815Z,15.93
2022-11-30T21:59:25.699Z,15.10
2022-11-30T22:03:07.507Z,15.48
2022-11-30T22:06:49.276Z,15.75
2022-11-30T22:10:32.022Z,15.70
2022-11-30T22:14:15.990Z,17.35
2022-11-30T22:17:57.754Z,18.17
2022-11-30T22:21:39.791Z,18.50
2022-11-30T22:25:21.567Z,17.55
2022-11-30T22:29:07.478Z,17.15
2022-11-30T22:32:49.992Z,16.40
2022-11-30T22:36:33.663Z,16.45
2022-11-30T22:40:15.467Z,17.85
2022-11-30T22:43:58.448Z,17.38
2022-11-30T22:47:40.174Z,18.02
2022-11-30T22:51:26.858Z,17.27
2022-11-30T22:55:09.300Z,19.15
2022-11-30T22:58:54.137Z,17.48
2022-11-30T23:02:35.950Z,16.85
2022-11-30T23:06:20.369Z,17.13
2022-11-30T23:10:02.287Z,16.90
2022-11-30T23:13:44.096Z,17.58
2022-11-30T23:17:25.847Z,17.42
2022-11-30T23:21:14.735Z,17.30
2022-11-30T23:24:56.454Z,17.98
2022-11-30T23:28:41.002Z,16.08
2022-11-30T23:32:22.961Z,18.00
2022-11-30T23:36:06.590Z,18.15
2022-11-30T23:39:48.547Z,16.23
2022-11-30T23:43:30.794Z,16.33
2022-11-30T23:47:18.008Z,17.80
2022-11-30T23:51:00.606Z,17.27
2022-11-30T23:54:42.379Z,15.88
2022-11-30T23:58:24.555Z,15.82
